sensor_id;sensor_type;location;lat;lon;timestamp;P1;durP1;ratioP1;P2;durP2;ratioP2
3953;SDS011;1991;48.682;9.030;2022-09-20T00:00:49;4.03;;;1.73;;
3953;SDS011;1991;48.682;9.030;2022-09-20T00:03:15;5.37;;;1.80;;
3953;SDS011;1991;48.682;9.030;2022-09-20T00:05:42;6.87;;;1.90;;
3953;SDS011;1991;48.682;9.030;2022-09-20T00:08:10;3.07;;;1.50;;
3953;SDS011;1991;48.682;9.030;2022-09-20T00:10:38;4.20;;;1.70;;
3953;SDS011;1991;48.682;9.030;2022-09-20T00:13:05;4.20;;;1.70;;
3953;SDS011;1991;48.682;9.030;2022-09-20T00:15:31;7.43;;;2.00;;
3953;SDS011;1991;48.682;9.030;2022-09-20T00:17:58;5.23;;;1.87;;
3953;SDS011;1991;48.682;9.030;2022-09-20T00:20:24;5.27;;;1.67;;
3953;SDS011;1991;48.682;9.030;2022-09-20T00:22:50;5.30;;;1.93;;
3953;SDS011;1991;48.682;9.030;2022-09-20T00:25:17;3.10;;;1.50;;
3953;SDS011;1991;48.682;9.030;2022-09-20T00:27:43;4.10;;;1.90;;
3953;SDS011;1991;48.682;9.030;2022-09-20T00:30:10;4.40;;;1.93;;
3953;SDS011;1991;48.682;9.030;2022-09-20T00:32:39;3.90;;;1.80;;
3953;SDS011;1991;48.682;9.030;2022-09-20T00:35:05;3.23;;;1.77;;
3953;SDS011;1991;48.682;9.030;2022-09-20T00:37:33;2.90;;;1.67;;
3953;SDS011;1991;48.682;9.030;2022-09-20T00:39:59;6.77;;;2.07;;
3953;SDS011;1991;48.682;9.030;2022-09-20T00:42:26;2.83;;;1.60;;
3953;SDS011;1991;48.682;9.030;2022-09-20T00:52:45;3.87;;;1.57;;
3953;SDS011;1991;48.682;9.030;2022-09-20T00:55:14;6.80;;;2.03;;
3953;SDS011;1991;48.682;9.030;2022-09-20T00:57:40;2.70;;;2.23;;
3953;SDS011;1991;48.682;9.030;2022-09-20T01:00:08;5.33;;;1.93;;
3953;SDS011;1991;48.682;9.030;2022-09-20T01:02:36;4.00;;;1.73;;
3953;SDS011;1991;48.682;9.030;2022-09-20T01:05:10;4.33;;;1.40;;
3953;SDS011;1991;48.682;9.030;2022-09-20T01:07:38;4.37;;;1.83;;
3953;SDS011;1991;48.682;9.030;2022-09-20T01:10:04;3.83;;;1.90;;
3953;SDS011;1991;48.682;9.030;2022-09-20T01:12:31;5.07;;;1.57;;
3953;SDS011;1991;48.682;9.030;2022-09-20T01:14:59;5.73;;;1.80;;
3953;SDS011;1991;48.682;9.030;2022-09-20T01:17:29;4.53;;;1.80;;
3953;SDS011;1991;48.682;9.030;2022-09-20T01:28:26;2.63;;;1.43;;
3953;SDS011;1991;48.682;9.030;2022-09-20T01:36:00;3.23;;;1.40;;
3953;SDS011;1991;48.682;9.030;2022-09-20T01:38:51;4.90;;;1.60;;
3953;SDS011;1991;48.682;9.030;2022-09-20T01:44:20;3.73;;;1.33;;
3953;SDS011;1991;48.682;9.030;2022-09-20T01:56:15;3.57;;;1.40;;
3953;SDS011;1991;48.682;9.030;2022-09-20T02:26:16;2.37;;;1.37;;
3953;SDS011;1991;48.682;9.030;2022-09-20T02:29:13;7.00;;;1.43;;
3953;SDS011;1991;48.682;9.030;2022-09-20T02:51:39;3.27;;;1.60;;
3953;SDS011;1991;48.682;9.030;2022-09-20T02:57:05;2.93;;;1.83;;
3953;SDS011;1991;48.682;9.030;2022-09-20T02:59:39;6.03;;;1.50;;
3953;SDS011;1991;48.682;9.030;2022-09-20T03:05:08;3.23;;;1.43;;
3953;SDS011;1991;48.682;9.030;2022-09-20T03:07:57;3.40;;;1.50;;
3953;SDS011;1991;48.682;9.030;2022-09-20T03:18:57;4.00;;;2.10;;
3953;SDS011;1991;48.682;9.030;2022-09-20T03:27:18;7.97;;;1.80;;
3953;SDS011;1991;48.682;9.030;2022-09-20T03:46:24;4.17;;;1.83;;
3953;SDS011;1991;48.682;9.030;2022-09-20T03:52:02;3.53;;;1.97;;
3953;SDS011;1991;48.682;9.030;2022-09-20T04:08:53;3.03;;;1.60;;
3953;SDS011;1991;48.682;9.030;2022-09-20T04:11:45;7.33;;;2.33;;
3953;SDS011;1991;48.682;9.030;2022-09-20T04:14:20;4.93;;;1.90;;
3953;SDS011;1991;48.682;9.030;2022-09-20T04:17:04;2.90;;;1.93;;
3953;SDS011;1991;48.682;9.030;2022-09-20T04:22:56;2.80;;;1.90;;
3953;SDS011;1991;48.682;9.030;2022-09-20T04:25:33;3.03;;;1.60;;
3953;SDS011;1991;48.682;9.030;2022-09-20T04:28:13;6.43;;;1.93;;
3953;SDS011;1991;48.682;9.030;2022-09-20T04:31:01;3.20;;;1.80;;
3953;SDS011;1991;48.682;9.030;2022-09-20T04:33:38;4.10;;;2.03;;
3953;SDS011;1991;48.682;9.030;2022-09-20T04:44:53;7.10;;;2.33;;
3953;SDS011;1991;48.682;9.030;2022-09-20T04:52:58;3.43;;;1.73;;
3953;SDS011;1991;48.682;9.030;2022-09-20T04:55:54;5.17;;;1.80;;
3953;SDS011;1991;48.682;9.030;2022-09-20T05:26:18;6.10;;;1.93;;
3953;SDS011;1991;48.682;9.030;2022-09-20T05:29:23;4.47;;;2.00;;
3953;SDS011;1991;48.682;9.030;2022-09-20T05:35:03;4.27;;;2.40;;
3953;SDS011;1991;48.682;9.030;2022-09-20T05:57:13;4.97;;;2.40;;
3953;SDS011;1991;48.682;9.030;2022-09-20T06:08:06;4.67;;;2.70;;
3953;SDS011;1991;48.682;9.030;2022-09-20T06:22:00;5.97;;;2.47;;
3953;SDS011;1991;48.682;9.030;2022-09-20T06:24:36;5.13;;;2.37;;
3953;SDS011;1991;48.682;9.030;2022-09-20T06:27:20;8.83;;;2.70;;
3953;SDS011;1991;48.682;9.030;2022-09-20T06:29:51;5.27;;;2.57;;
3953;SDS011;1991;48.682;9.030;2022-09-20T06:32:30;8.77;;;2.77;;
3953;SDS011;1991;48.682;9.030;2022-09-20T06:34:57;7.93;;;2.40;;
3953;SDS011;1991;48.682;9.030;2022-09-20T06:40:40;8.80;;;2.63;;
3953;SDS011;1991;48.682;9.030;2022-09-20T06:43:27;3.63;;;2.27;;
3953;SDS011;1991;48.682;9.030;2022-09-20T06:45:54;6.70;;;2.10;;
3953;SDS011;1991;48.682;9.030;2022-09-20T06:48:20;5.43;;;2.50;;
3953;SDS011;1991;48.682;9.030;2022-09-20T06:50:47;7.70;;;2.63;;
3953;SDS011;1991;48.682;9.030;2022-09-20T06:53:16;8.07;;;2.87;;
3953;SDS011;1991;48.682;9.030;2022-09-20T06:55:44;9.37;;;2.80;;
3953;SDS011;1991;48.682;9.030;2022-09-20T06:58:11;11.47;;;2.77;;
3953;SDS011;1991;48.682;9.030;2022-09-20T07:00:36;2.83;;;2.43;;
3953;SDS011;1991;48.682;9.030;2022-09-20T07:03:03;4.27;;;2.13;;
3953;SDS011;1991;48.682;9.030;2022-09-20T07:05:29;5.80;;;2.80;;
3953;SDS011;1991;48.682;9.030;2022-09-20T07:07:56;6.70;;;3.40;;
3953;SDS011;1991;48.682;9.030;2022-09-20T07:10:23;6.40;;;3.30;;
3953;SDS011;1991;48.682;9.030;2022-09-20T07:13:00;8.70;;;3.60;;
3953;SDS011;1991;48.682;9.030;2022-09-20T07:15:27;9.00;;;2.87;;
3953;SDS011;1991;48.682;9.030;2022-09-20T07:17:54;9.63;;;3.23;;
3953;SDS011;1991;48.682;9.030;2022-09-20T07:20:20;7.77;;;2.90;;
3953;SDS011;1991;48.682;9.030;2022-09-20T07:22:46;7.20;;;3.03;;
3953;SDS011;1991;48.682;9.030;2022-09-20T07:25:13;6.83;;;3.00;;
3953;SDS011;1991;48.682;9.030;2022-09-20T07:27:38;9.00;;;3.10;;
3953;SDS011;1991;48.682;9.030;2022-09-20T07:30:04;10.60;;;2.90;;
3953;SDS011;1991;48.682;9.030;2022-09-20T07:32:32;11.80;;;2.90;;
3953;SDS011;1991;48.682;9.030;2022-09-20T07:34:57;5.80;;;2.53;;
3953;SDS011;1991;48.682;9.030;2022-09-20T07:37:23;7.63;;;3.00;;
3953;SDS011;1991;48.682;9.030;2022-09-20T07:39:49;10.17;;;2.90;;
3953;SDS011;1991;48.682;9.030;2022-09-20T07:42:14;10.13;;;4.07;;
3953;SDS011;1991;48.682;9.030;2022-09-20T07:44:40;6.03;;;2.35;;
3953;SDS011;1991;48.682;9.030;2022-09-20T07:47:07;8.40;;;2.77;;
3953;SDS011;1991;48.682;9.030;2022-09-20T07:49:38;7.03;;;2.72;;
3953;SDS011;1991;48.682;9.030;2022-09-20T07:52:03;7.95;;;2.15;;
3953;SDS011;1991;48.682;9.030;2022-09-20T07:54:30;8.50;;;2.63;;
3953;SDS011;1991;48.682;9.030;2022-09-20T07:56:56;14.52;;;2.28;;
3953;SDS011;1991;48.682;9.030;2022-09-20T07:59:21;7.68;;;2.50;;
3953;SDS011;1991;48.682;9.030;2022-09-20T08:01:48;11.23;;;1.95;;
3953;SDS011;1991;48.682;9.030;2022-09-20T08:04:13;9.43;;;1.98;;
3953;SDS011;1991;48.682;9.030;2022-09-20T08:06:43;3.90;;;1.33;;
3953;SDS011;1991;48.682;9.030;2022-09-20T08:09:10;10.40;;;1.75;;
3953;SDS011;1991;48.682;9.030;2022-09-20T08:11:37;8.05;;;1.60;;
3953;SDS011;1991;48.682;9.030;2022-09-20T08:14:04;6.93;;;1.58;;
3953;SDS011;1991;48.682;9.030;2022-09-20T08:16:35;10.85;;;1.95;;
3953;SDS011;1991;48.682;9.030;2022-09-20T08:19:02;4.75;;;1.33;;
3953;SDS011;1991;48.682;9.030;2022-09-20T08:21:32;6.95;;;1.40;;
3953;SDS011;1991;48.682;9.030;2022-09-20T08:23:59;10.55;;;1.67;;
3953;SDS011;1991;48.682;9.030;2022-09-20T08:26:26;6.15;;;1.52;;
3953;SDS011;1991;48.682;9.030;2022-09-20T08:28:53;7.65;;;1.73;;
3953;SDS011;1991;48.682;9.030;2022-09-20T08:31:23;7.57;;;1.30;;
3953;SDS011;1991;48.682;9.030;2022-09-20T08:33:50;5.32;;;1.38;;
3953;SDS011;1991;48.682;9.030;2022-09-20T08:36:18;8.02;;;1.40;;
3953;SDS011;1991;48.682;9.030;2022-09-20T08:38:45;8.20;;;1.70;;
3953;SDS011;1991;48.682;9.030;2022-09-20T08:43:51;6.60;;;1.13;;
3953;SDS011;1991;48.682;9.030;2022-09-20T08:46:34;4.82;;;1.00;;
3953;SDS011;1991;48.682;9.030;2022-09-20T08:49:04;8.00;;;1.42;;
3953;SDS011;1991;48.682;9.030;2022-09-20T08:51:32;6.55;;;1.90;;
3953;SDS011;1991;48.682;9.030;2022-09-20T08:54:01;11.10;;;1.67;;
3953;SDS011;1991;48.682;9.030;2022-09-20T08:56:30;3.53;;;1.58;;
3953;SDS011;1991;48.682;9.030;2022-09-20T08:59:00;10.50;;;1.70;;
3953;SDS011;1991;48.682;9.030;2022-09-20T09:01:27;7.22;;;2.00;;
3953;SDS011;1991;48.682;9.030;2022-09-20T09:06:43;6.95;;;1.75;;
3953;SDS011;1991;48.682;9.030;2022-09-20T09:09:16;7.28;;;1.75;;
3953;SDS011;1991;48.682;9.030;2022-09-20T09:11:44;8.10;;;1.65;;
3953;SDS011;1991;48.682;9.030;2022-09-20T09:14:29;7.35;;;1.40;;
3953;SDS011;1991;48.682;9.030;2022-09-20T09:17:16;10.05;;;1.70;;
3953;SDS011;1991;48.682;9.030;2022-09-20T09:19:51;4.45;;;1.50;;
3953;SDS011;1991;48.682;9.030;2022-09-20T09:22:27;5.82;;;1.60;;
3953;SDS011;1991;48.682;9.030;2022-09-20T09:25:34;8.18;;;1.63;;
3953;SDS011;1991;48.682;9.030;2022-09-20T09:28:03;5.28;;;1.48;;
3953;SDS011;1991;48.682;9.030;2022-09-20T09:30:38;12.30;;;2.10;;
3953;SDS011;1991;48.682;9.030;2022-09-20T09:33:25;7.78;;;2.10;;
3953;SDS011;1991;48.682;9.030;2022-09-20T09:38:24;5.43;;;1.13;;
3953;SDS011;1991;48.682;9.030;2022-09-20T09:40:53;7.20;;;1.50;;
3953;SDS011;1991;48.682;9.030;2022-09-20T09:43:24;5.25;;;1.30;;
3953;SDS011;1991;48.682;9.030;2022-09-20T09:45:53;7.72;;;1.52;;
3953;SDS011;1991;48.682;9.030;2022-09-20T09:48:27;9.27;;;1.60;;
3953;SDS011;1991;48.682;9.030;2022-09-20T09:51:09;6.50;;;1.38;;
3953;SDS011;1991;48.682;9.030;2022-09-20T09:53:36;9.30;;;1.65;;
3953;SDS011;1991;48.682;9.030;2022-09-20T10:02:12;7.05;;;2.00;;
3953;SDS011;1991;48.682;9.030;2022-09-20T10:12:32;4.80;;;0.90;;
3953;SDS011;1991;48.682;9.030;2022-09-20T10:17:50;5.82;;;1.42;;
3953;SDS011;1991;48.682;9.030;2022-09-20T10:26:22;7.18;;;1.17;;
3953;SDS011;1991;48.682;9.030;2022-09-20T10:29:16;3.50;;;0.85;;
3953;SDS011;1991;48.682;9.030;2022-09-20T10:35:14;5.57;;;0.93;;
3953;SDS011;1991;48.682;9.030;2022-09-20T10:49:34;13.15;;;1.40;;
3953;SDS011;1991;48.682;9.030;2022-09-20T10:55:24;8.35;;;1.70;;
3953;SDS011;1991;48.682;9.030;2022-09-20T11:03:25;6.78;;;1.10;;
3953;SDS011;1991;48.682;9.030;2022-09-20T11:06:18;4.88;;;0.90;;
3953;SDS011;1991;48.682;9.030;2022-09-20T11:08:51;5.22;;;1.52;;
3953;SDS011;1991;48.682;9.030;2022-09-20T11:11:28;5.95;;;1.35;;
3953;SDS011;1991;48.682;9.030;2022-09-20T11:14:00;3.50;;;1.00;;
3953;SDS011;1991;48.682;9.030;2022-09-20T11:16:54;5.97;;;0.95;;
3953;SDS011;1991;48.682;9.030;2022-09-20T11:22:15;4.07;;;1.23;;
3953;SDS011;1991;48.682;9.030;2022-09-20T11:24:52;3.50;;;1.00;;
3953;SDS011;1991;48.682;9.030;2022-09-20T11:27:21;4.32;;;1.20;;
3953;SDS011;1991;48.682;9.030;2022-09-20T11:37:40;8.30;;;1.92;;
3953;SDS011;1991;48.682;9.030;2022-09-20T11:40:19;6.65;;;1.20;;
3953;SDS011;1991;48.682;9.030;2022-09-20T11:42:50;6.93;;;1.27;;
3953;SDS011;1991;48.682;9.030;2022-09-20T11:45:19;2.88;;;1.13;;
3953;SDS011;1991;48.682;9.030;2022-09-20T11:47:52;4.72;;;1.13;;
3953;SDS011;1991;48.682;9.030;2022-09-20T11:58:53;5.95;;;1.90;;
3953;SDS011;1991;48.682;9.030;2022-09-20T12:01:30;8.38;;;1.73;;
3953;SDS011;1991;48.682;9.030;2022-09-20T12:04:07;7.13;;;1.63;;
3953;SDS011;1991;48.682;9.030;2022-09-20T12:06:38;5.70;;;2.35;;
3953;SDS011;1991;48.682;9.030;2022-09-20T12:09:20;3.78;;;2.30;;
3953;SDS011;1991;48.682;9.030;2022-09-20T12:11:53;3.35;;;1.05;;
3953;SDS011;1991;48.682;9.030;2022-09-20T12:14:23;6.50;;;1.65;;
3953;SDS011;1991;48.682;9.030;2022-09-20T12:16:50;5.32;;;1.10;;
3953;SDS011;1991;48.682;9.030;2022-09-20T12:24:44;5.90;;;1.40;;
3953;SDS011;1991;48.682;9.030;2022-09-20T12:30:18;9.68;;;3.67;;
3953;SDS011;1991;48.682;9.030;2022-09-20T12:32:55;5.28;;;1.15;;
3953;SDS011;1991;48.682;9.030;2022-09-20T12:41:09;2.63;;;1.02;;
3953;SDS011;1991;48.682;9.030;2022-09-20T12:43:38;5.78;;;1.15;;
3953;SDS011;1991;48.682;9.030;2022-09-20T12:46:19;7.53;;;1.58;;
3953;SDS011;1991;48.682;9.030;2022-09-20T12:48:50;3.85;;;1.35;;
3953;SDS011;1991;48.682;9.030;2022-09-20T12:51:33;4.05;;;1.50;;
3953;SDS011;1991;48.682;9.030;2022-09-20T12:54:17;4.90;;;2.50;;
3953;SDS011;1991;48.682;9.030;2022-09-20T12:56:43;3.75;;;1.50;;
3953;SDS011;1991;48.682;9.030;2022-09-20T12:59:23;3.50;;;1.88;;
3953;SDS011;1991;48.682;9.030;2022-09-20T13:01:55;3.15;;;1.00;;
3953;SDS011;1991;48.682;9.030;2022-09-20T13:07:25;7.07;;;4.65;;
3953;SDS011;1991;48.682;9.030;2022-09-20T13:10:04;29.13;;;20.30;;
3953;SDS011;1991;48.682;9.030;2022-09-20T13:12:52;7.18;;;2.92;;
3953;SDS011;1991;48.682;9.030;2022-09-20T13:15:23;2.78;;;0.93;;
3953;SDS011;1991;48.682;9.030;2022-09-20T13:17:49;4.38;;;1.08;;
3953;SDS011;1991;48.682;9.030;2022-09-20T13:20:21;3.40;;;0.95;;
3953;SDS011;1991;48.682;9.030;2022-09-20T13:22:49;1.30;;;0.80;;
3953;SDS011;1991;48.682;9.030;2022-09-20T13:25:17;3.55;;;1.08;;
3953;SDS011;1991;48.682;9.030;2022-09-20T13:27:54;2.30;;;0.70;;
3953;SDS011;1991;48.682;9.030;2022-09-20T13:30:33;2.30;;;0.82;;
3953;SDS011;1991;48.682;9.030;2022-09-20T13:35:45;1.98;;;1.00;;
3953;SDS011;1991;48.682;9.030;2022-09-20T13:38:13;3.90;;;0.90;;
3953;SDS011;1991;48.682;9.030;2022-09-20T13:40:46;6.20;;;0.98;;
3953;SDS011;1991;48.682;9.030;2022-09-20T13:45:55;4.95;;;1.17;;
3953;SDS011;1991;48.682;9.030;2022-09-20T13:48:26;4.15;;;1.15;;
3953;SDS011;1991;48.682;9.030;2022-09-20T13:50:53;4.43;;;1.23;;
3953;SDS011;1991;48.682;9.030;2022-09-20T13:53:21;4.35;;;1.05;;
3953;SDS011;1991;48.682;9.030;2022-09-20T13:55:48;4.10;;;1.05;;
3953;SDS011;1991;48.682;9.030;2022-09-20T14:01:20;6.20;;;1.50;;
3953;SDS011;1991;48.682;9.030;2022-09-20T14:03:49;4.50;;;1.40;;
3953;SDS011;1991;48.682;9.030;2022-09-20T14:06:16;3.17;;;1.52;;
3953;SDS011;1991;48.682;9.030;2022-09-20T14:08:42;3.05;;;1.30;;
3953;SDS011;1991;48.682;9.030;2022-09-20T14:13:41;6.90;;;1.52;;
3953;SDS011;1991;48.682;9.030;2022-09-20T14:16:10;3.22;;;1.00;;
3953;SDS011;1991;48.682;9.030;2022-09-20T14:18:38;3.92;;;1.38;;
3953;SDS011;1991;48.682;9.030;2022-09-20T14:21:08;4.25;;;1.30;;
3953;SDS011;1991;48.682;9.030;2022-09-20T14:23:51;3.42;;;0.90;;
3953;SDS011;1991;48.682;9.030;2022-09-20T14:28:52;5.55;;;1.80;;
3953;SDS011;1991;48.682;9.030;2022-09-20T14:31:20;2.63;;;1.20;;
3953;SDS011;1991;48.682;9.030;2022-09-20T14:33:50;4.75;;;1.23;;
3953;SDS011;1991;48.682;9.030;2022-09-20T14:36:22;7.05;;;1.88;;
3953;SDS011;1991;48.682;9.030;2022-09-20T14:38:51;5.65;;;0.90;;
3953;SDS011;1991;48.682;9.030;2022-09-20T14:41:36;1.02;;;0.65;;
3953;SDS011;1991;48.682;9.030;2022-09-20T14:44:03;2.00;;;0.88;;
3953;SDS011;1991;48.682;9.030;2022-09-20T14:46:35;5.72;;;1.10;;
3953;SDS011;1991;48.682;9.030;2022-09-20T14:49:29;6.80;;;1.00;;
3953;SDS011;1991;48.682;9.030;2022-09-20T14:55:00;3.90;;;1.13;;
3953;SDS011;1991;48.682;9.030;2022-09-20T14:57:37;3.20;;;0.77;;
3953;SDS011;1991;48.682;9.030;2022-09-20T15:00:06;3.33;;;0.85;;
3953;SDS011;1991;48.682;9.030;2022-09-20T15:02:35;3.13;;;1.02;;
3953;SDS011;1991;48.682;9.030;2022-09-20T15:05:04;4.45;;;1.60;;
3953;SDS011;1991;48.682;9.030;2022-09-20T15:07:30;3.03;;;1.50;;
3953;SDS011;1991;48.682;9.030;2022-09-20T15:09:57;2.15;;;1.20;;
3953;SDS011;1991;48.682;9.030;2022-09-20T15:12:23;1.95;;;0.90;;
3953;SDS011;1991;48.682;9.030;2022-09-20T15:14:48;2.03;;;0.93;;
3953;SDS011;1991;48.682;9.030;2022-09-20T15:17:15;2.35;;;0.70;;
3953;SDS011;1991;48.682;9.030;2022-09-20T15:19:43;1.35;;;0.75;;
3953;SDS011;1991;48.682;9.030;2022-09-20T15:22:09;3.85;;;0.90;;
3953;SDS011;1991;48.682;9.030;2022-09-20T15:24:35;1.02;;;0.50;;
3953;SDS011;1991;48.682;9.030;2022-09-20T15:27:01;2.63;;;0.90;;
3953;SDS011;1991;48.682;9.030;2022-09-20T15:29:27;5.80;;;1.75;;
3953;SDS011;1991;48.682;9.030;2022-09-20T15:31:52;5.75;;;1.10;;
3953;SDS011;1991;48.682;9.030;2022-09-20T15:34:18;2.85;;;1.00;;
3953;SDS011;1991;48.682;9.030;2022-09-20T15:36:43;2.92;;;1.08;;
3953;SDS011;1991;48.682;9.030;2022-09-20T15:39:09;2.30;;;1.05;;
3953;SDS011;1991;48.682;9.030;2022-09-20T15:41:35;3.38;;;1.20;;
3953;SDS011;1991;48.682;9.030;2022-09-20T15:44:02;4.85;;;1.27;;
3953;SDS011;1991;48.682;9.030;2022-09-20T15:46:28;3.25;;;1.52;;
3953;SDS011;1991;48.682;9.030;2022-09-20T15:48:55;3.00;;;1.10;;
3953;SDS011;1991;48.682;9.030;2022-09-20T15:51:20;3.95;;;1.05;;
3953;SDS011;1991;48.682;9.030;2022-09-20T15:53:52;3.33;;;0.88;;
3953;SDS011;1991;48.682;9.030;2022-09-20T15:56:20;2.63;;;1.00;;
3953;SDS011;1991;48.682;9.030;2022-09-20T15:58:54;4.10;;;1.23;;
3953;SDS011;1991;48.682;9.030;2022-09-20T16:01:29;4.32;;;1.17;;
3953;SDS011;1991;48.682;9.030;2022-09-20T16:03:57;6.57;;;0.90;;
3953;SDS011;1991;48.682;9.030;2022-09-20T16:06:23;2.60;;;1.00;;
3953;SDS011;1991;48.682;9.030;2022-09-20T16:08:49;1.63;;;1.13;;
3953;SDS011;1991;48.682;9.030;2022-09-20T16:11:16;1.63;;;0.85;;
3953;SDS011;1991;48.682;9.030;2022-09-20T16:13:44;3.45;;;1.10;;
3953;SDS011;1991;48.682;9.030;2022-09-20T16:16:11;3.75;;;1.27;;
3953;SDS011;1991;48.682;9.030;2022-09-20T16:18:38;6.13;;;1.35;;
3953;SDS011;1991;48.682;9.030;2022-09-20T16:21:22;4.90;;;1.08;;
3953;SDS011;1991;48.682;9.030;2022-09-20T16:23:49;3.33;;;1.10;;
3953;SDS011;1991;48.682;9.030;2022-09-20T16:26:16;4.00;;;1.13;;
3953;SDS011;1991;48.682;9.030;2022-09-20T16:28:43;2.83;;;1.10;;
3953;SDS011;1991;48.682;9.030;2022-09-20T16:33:58;3.58;;;1.20;;
3953;SDS011;1991;48.682;9.030;2022-09-20T16:36:29;3.15;;;1.15;;
3953;SDS011;1991;48.682;9.030;2022-09-20T16:38:56;2.13;;;0.80;;
3953;SDS011;1991;48.682;9.030;2022-09-20T16:41:23;2.60;;;1.00;;
3953;SDS011;1991;48.682;9.030;2022-09-20T16:43:50;3.80;;;1.10;;
3953;SDS011;1991;48.682;9.030;2022-09-20T16:46:17;3.05;;;1.30;;
3953;SDS011;1991;48.682;9.030;2022-09-20T16:48:44;1.85;;;1.10;;
3953;SDS011;1991;48.682;9.030;2022-09-20T16:51:11;2.30;;;1.17;;
3953;SDS011;1991;48.682;9.030;2022-09-20T16:53:38;4.32;;;1.17;;
3953;SDS011;1991;48.682;9.030;2022-09-20T16:56:04;6.32;;;1.30;;
3953;SDS011;1991;48.682;9.030;2022-09-20T16:58:31;2.65;;;1.10;;
3953;SDS011;1991;48.682;9.030;2022-09-20T17:01:05;4.07;;;1.25;;
3953;SDS011;1991;48.682;9.030;2022-09-20T17:03:32;1.90;;;1.17;;
3953;SDS011;1991;48.682;9.030;2022-09-20T17:06:04;2.13;;;1.35;;
3953;SDS011;1991;48.682;9.030;2022-09-20T17:08:31;5.05;;;1.35;;
3953;SDS011;1991;48.682;9.030;2022-09-20T17:11:04;5.95;;;2.10;;
3953;SDS011;1991;48.682;9.030;2022-09-20T17:13:39;22.27;;;11.43;;
3953;SDS011;1991;48.682;9.030;2022-09-20T17:16:10;10.70;;;4.97;;
3953;SDS011;1991;48.682;9.030;2022-09-20T17:18:38;5.10;;;3.78;;
3953;SDS011;1991;48.682;9.030;2022-09-20T17:21:06;2.95;;;2.20;;
3953;SDS011;1991;48.682;9.030;2022-09-20T17:23:42;3.70;;;1.40;;
3953;SDS011;1991;48.682;9.030;2022-09-20T17:28:38;4.68;;;1.63;;
3953;SDS011;1991;48.682;9.030;2022-09-20T17:31:05;4.07;;;1.65;;
3953;SDS011;1991;48.682;9.030;2022-09-20T17:33:33;4.93;;;1.88;;
3953;SDS011;1991;48.682;9.030;2022-09-20T17:36:00;3.83;;;1.60;;
3953;SDS011;1991;48.682;9.030;2022-09-20T17:38:28;4.82;;;1.58;;
3953;SDS011;1991;48.682;9.030;2022-09-20T17:40:58;2.92;;;2.10;;
3953;SDS011;1991;48.682;9.030;2022-09-20T17:43:24;4.78;;;1.88;;
3953;SDS011;1991;48.682;9.030;2022-09-20T17:45:51;6.20;;;2.13;;
3953;SDS011;1991;48.682;9.030;2022-09-20T17:48:16;8.80;;;2.30;;
3953;SDS011;1991;48.682;9.030;2022-09-20T17:50:52;6.00;;;2.40;;
3953;SDS011;1991;48.682;9.030;2022-09-20T17:53:20;5.30;;;2.27;;
3953;SDS011;1991;48.682;9.030;2022-09-20T17:55:51;6.13;;;2.27;;
3953;SDS011;1991;48.682;9.030;2022-09-20T17:58:20;4.47;;;2.27;;
3953;SDS011;1991;48.682;9.030;2022-09-20T18:00:46;4.18;;;2.47;;
3953;SDS011;1991;48.682;9.030;2022-09-20T18:03:12;5.93;;;2.70;;
3953;SDS011;1991;48.682;9.030;2022-09-20T18:05:38;5.30;;;2.95;;
3953;SDS011;1991;48.682;9.030;2022-09-20T18:08:04;4.35;;;2.58;;
3953;SDS011;1991;48.682;9.030;2022-09-20T18:10:30;4.18;;;2.55;;
3953;SDS011;1991;48.682;9.030;2022-09-20T18:12:55;4.07;;;2.30;;
3953;SDS011;1991;48.682;9.030;2022-09-20T18:15:21;2.90;;;2.10;;
3953;SDS011;1991;48.682;9.030;2022-09-20T18:17:47;5.00;;;2.10;;
3953;SDS011;1991;48.682;9.030;2022-09-20T18:20:13;3.65;;;2.17;;
3953;SDS011;1991;48.682;9.030;2022-09-20T18:22:39;4.00;;;2.50;;
3953;SDS011;1991;48.682;9.030;2022-09-20T18:25:05;11.33;;;7.50;;
3953;SDS011;1991;48.682;9.030;2022-09-20T18:27:30;16.67;;;9.97;;
3953;SDS011;1991;48.682;9.030;2022-09-20T18:29:58;9.70;;;7.00;;
3953;SDS011;1991;48.682;9.030;2022-09-20T18:32:23;9.27;;;5.23;;
3953;SDS011;1991;48.682;9.030;2022-09-20T18:34:50;5.10;;;2.00;;
3953;SDS011;1991;48.682;9.030;2022-09-20T18:37:16;4.73;;;1.97;;
3953;SDS011;1991;48.682;9.030;2022-09-20T18:39:41;2.97;;;2.20;;
3953;SDS011;1991;48.682;9.030;2022-09-20T18:42:07;6.70;;;2.20;;
3953;SDS011;1991;48.682;9.030;2022-09-20T18:44:34;5.10;;;2.60;;
3953;SDS011;1991;48.682;9.030;2022-09-20T18:47:01;4.97;;;2.40;;
3953;SDS011;1991;48.682;9.030;2022-09-20T18:49:27;3.23;;;2.10;;
3953;SDS011;1991;48.682;9.030;2022-09-20T18:51:54;5.80;;;3.80;;
3953;SDS011;1991;48.682;9.030;2022-09-20T18:54:20;6.87;;;4.97;;
3953;SDS011;1991;48.682;9.030;2022-09-20T18:56:47;5.73;;;4.30;;
3953;SDS011;1991;48.682;9.030;2022-09-20T19:09:46;19.67;;;10.20;;
3953;SDS011;1991;48.682;9.030;2022-09-20T19:12:18;16.63;;;9.33;;
3953;SDS011;1991;48.682;9.030;2022-09-20T19:17:31;23.40;;;15.60;;
3953;SDS011;1991;48.682;9.030;2022-09-20T19:20:07;16.93;;;12.10;;
3953;SDS011;1991;48.682;9.030;2022-09-20T19:25:38;40.90;;;25.60;;
3953;SDS011;1991;48.682;9.030;2022-09-20T19:28:11;29.17;;;19.10;;
3953;SDS011;1991;48.682;9.030;2022-09-20T19:30:38;17.83;;;9.40;;
3953;SDS011;1991;48.682;9.030;2022-09-20T19:33:24;6.63;;;4.43;;
3953;SDS011;1991;48.682;9.030;2022-09-20T19:35:51;7.70;;;4.37;;
3953;SDS011;1991;48.682;9.030;2022-09-20T19:47:16;8.60;;;3.80;;
3953;SDS011;1991;48.682;9.030;2022-09-20T19:49:55;6.67;;;3.00;;
3953;SDS011;1991;48.682;9.030;2022-09-20T19:52:27;6.60;;;3.20;;
3953;SDS011;1991;48.682;9.030;2022-09-20T19:54:53;4.63;;;3.03;;
3953;SDS011;1991;48.682;9.030;2022-09-20T19:57:20;4.67;;;3.03;;
3953;SDS011;1991;48.682;9.030;2022-09-20T19:59:52;6.87;;;2.87;;
3953;SDS011;1991;48.682;9.030;2022-09-20T20:02:19;4.83;;;3.53;;
3953;SDS011;1991;48.682;9.030;2022-09-20T20:04:45;8.53;;;3.30;;
3953;SDS011;1991;48.682;9.030;2022-09-20T20:07:14;4.43;;;2.70;;
3953;SDS011;1991;48.682;9.030;2022-09-20T20:09:49;4.87;;;2.90;;
3953;SDS011;1991;48.682;9.030;2022-09-20T20:12:49;3.60;;;3.07;;
3953;SDS011;1991;48.682;9.030;2022-09-20T20:18:10;6.87;;;3.37;;
3953;SDS011;1991;48.682;9.030;2022-09-20T20:20:53;7.77;;;3.50;;
3953;SDS011;1991;48.682;9.030;2022-09-20T20:28:37;7.63;;;3.90;;
3953;SDS011;1991;48.682;9.030;2022-09-20T20:31:03;8.53;;;6.10;;
3953;SDS011;1991;48.682;9.030;2022-09-20T20:33:30;7.03;;;3.93;;
3953;SDS011;1991;48.682;9.030;2022-09-20T20:35:57;5.73;;;3.17;;
3953;SDS011;1991;48.682;9.030;2022-09-20T20:38:25;5.30;;;3.27;;
3953;SDS011;1991;48.682;9.030;2022-09-20T20:41:00;4.03;;;2.70;;
3953;SDS011;1991;48.682;9.030;2022-09-20T20:43:32;3.40;;;2.57;;
3953;SDS011;1991;48.682;9.030;2022-09-20T20:45:59;5.37;;;2.40;;
3953;SDS011;1991;48.682;9.030;2022-09-20T20:48:25;4.97;;;2.23;;
3953;SDS011;1991;48.682;9.030;2022-09-20T20:50:59;8.17;;;2.53;;
3953;SDS011;1991;48.682;9.030;2022-09-20T20:53:29;7.03;;;2.20;;
3953;SDS011;1991;48.682;9.030;2022-09-20T20:56:03;5.17;;;2.30;;
3953;SDS011;1991;48.682;9.030;2022-09-20T20:58:31;3.40;;;2.30;;
3953;SDS011;1991;48.682;9.030;2022-09-20T21:03:48;4.67;;;2.30;;
3953;SDS011;1991;48.682;9.030;2022-09-20T21:06:14;4.93;;;2.60;;
3953;SDS011;1991;48.682;9.030;2022-09-20T21:08:41;5.93;;;2.37;;
3953;SDS011;1991;48.682;9.030;2022-09-20T21:11:18;2.80;;;2.10;;
3953;SDS011;1991;48.682;9.030;2022-09-20T21:13:49;5.63;;;3.00;;
3953;SDS011;1991;48.682;9.030;2022-09-20T21:16:19;7.47;;;3.03;;
3953;SDS011;1991;48.682;9.030;2022-09-20T21:18:47;7.07;;;2.63;;
3953;SDS011;1991;48.682;9.030;2022-09-20T21:21:17;5.53;;;2.77;;
3953;SDS011;1991;48.682;9.030;2022-09-20T21:23:43;4.77;;;2.77;;
3953;SDS011;1991;48.682;9.030;2022-09-20T21:26:11;4.53;;;2.70;;
3953;SDS011;1991;48.682;9.030;2022-09-20T21:28:39;5.13;;;2.90;;
3953;SDS011;1991;48.682;9.030;2022-09-20T21:31:10;4.57;;;2.50;;
3953;SDS011;1991;48.682;9.030;2022-09-20T21:33:40;3.73;;;2.60;;
3953;SDS011;1991;48.682;9.030;2022-09-20T21:36:07;7.60;;;3.03;;
3953;SDS011;1991;48.682;9.030;2022-09-20T21:38:36;5.67;;;2.43;;
3953;SDS011;1991;48.682;9.030;2022-09-20T21:41:13;8.30;;;2.60;;
3953;SDS011;1991;48.682;9.030;2022-09-20T21:43:39;5.53;;;2.47;;
3953;SDS011;1991;48.682;9.030;2022-09-20T21:46:14;4.40;;;2.83;;
3953;SDS011;1991;48.682;9.030;2022-09-20T21:48:41;5.13;;;2.40;;
3953;SDS011;1991;48.682;9.030;2022-09-20T21:51:11;4.30;;;2.80;;